sensor_id;sensor_type;location;lat;lon;timestamp;temperature;humidity
19044;DHT22;9654;52.302;8.120;2023-01-23T00:02:08;1.70;99.90
19044;DHT22;9654;52.302;8.120;2023-01-23T00:04:35;1.80;99.90
19044;DHT22;9654;52.302;8.120;2023-01-23T00:07:03;1.80;99.90
19044;DHT22;9654;52.302;8.120;2023-01-23T00:09:29;1.80;99.90
19044;DHT22;9654;52.302;8.120;2023-01-23T00:11:56;1.80;99.90
19044;DHT22;9654;52.302;8.120;2023-01-23T00:14:23;1.80;99.90
19044;DHT22;9654;52.302;8.120;2023-01-23T00:16:50;1.80;99.90
19044;DHT22;9654;52.302;8.120;2023-01-23T00:19:17;1.80;99.90
19044;DHT22;9654;52.302;8.120;2023-01-23T00:21:44;1.80;99.90
19044;DHT22;9654;52.302;8.120;2023-01-23T00:24:12;1.80;99.90
19044;DHT22;9654;52.302;8.120;2023-01-23T00:26:38;1.80;99.90
19044;DHT22;9654;52.302;8.120;2023-01-23T00:29:05;1.80;99.90
19044;DHT22;9654;52.302;8.120;2023-01-23T00:31:34;1.80;99.90
19044;DHT22;9654;52.302;8.120;2023-01-23T00:34:04;1.70;99.90
19044;DHT22;9654;52.302;8.120;2023-01-23T00:36:33;1.80;99.90
19044;DHT22;9654;52.302;8.120;2023-01-23T00:39:00;1.80;99.90
19044;DHT22;9654;52.302;8.120;2023-01-23T00:41:29;1.80;99.90
19044;DHT22;9654;52.302;8.120;2023-01-23T00:43:55;1.80;99.90
19044;DHT22;9654;52.302;8.120;2023-01-23T00:46:22;1.80;99.90
19044;DHT22;9654;52.302;8.120;2023-01-23T00:48:49;1.80;99.90
19044;DHT22;9654;52.302;8.120;2023-01-23T00:51:16;1.80;99.90
19044;DHT22;9654;52.302;8.120;2023-01-23T00:53:45;1.80;99.90
19044;DHT22;9654;52.302;8.120;2023-01-23T00:56:11;1.80;99.90
19044;DHT22;9654;52.302;8.120;2023-01-23T00:58:39;1.80;99.90
19044;DHT22;9654;52.302;8.120;2023-01-23T01:01:07;1.80;99.90
19044;DHT22;9654;52.302;8.120;2023-01-23T01:03:34;1.70;99.90
19044;DHT22;9654;52.302;8.120;2023-01-23T01:06:01;1.80;99.90
19044;DHT22;9654;52.302;8.120;2023-01-23T01:08:29;1.80;99.90
19044;DHT22;9654;52.302;8.120;2023-01-23T01:10:55;1.80;99.90
19044;DHT22;9654;52.302;8.120;2023-01-23T01:13:22;1.70;99.90
19044;DHT22;9654;52.302;8.120;2023-01-23T01:15:51;1.80;99.90
19044;DHT22;9654;52.302;8.120;2023-01-23T01:18:19;1.80;99.90
19044;DHT22;9654;52.302;8.120;2023-01-23T01:20:47;1.70;99.90
19044;DHT22;9654;52.302;8.120;2023-01-23T01:23:14;1.70;99.90
19044;DHT22;9654;52.302;8.120;2023-01-23T01:25:41;1.70;99.90
19044;DHT22;9654;52.302;8.120;2023-01-23T01:28:08;1.80;99.90
19044;DHT22;9654;52.302;8.120;2023-01-23T01:30:34;1.80;99.90
19044;DHT22;9654;52.302;8.120;2023-01-23T01:33:03;1.80;99.90
19044;DHT22;9654;52.302;8.120;2023-01-23T01:35:30;1.80;99.90
19044;DHT22;9654;52.302;8.120;2023-01-23T01:37:57;1.80;99.90
19044;DHT22;9654;52.302;8.120;2023-01-23T01:40:27;1.80;99.90
19044;DHT22;9654;52.302;8.120;2023-01-23T01:42:57;1.80;99.90
19044;DHT22;9654;52.302;8.120;2023-01-23T01:46:02;1.90;99.90
19044;DHT22;9654;52.302;8.120;2023-01-23T01:48:33;1.90;99.90
19044;DHT22;9654;52.302;8.120;2023-01-23T01:51:04;1.90;99.90
19044;DHT22;9654;52.302;8.120;2023-01-23T01:53:32;1.90;99.90
19044;DHT22;9654;52.302;8.120;2023-01-23T01:55:59;1.90;99.90
19044;DHT22;9654;52.302;8.120;2023-01-23T01:58:27;1.90;99.90
19044;DHT22;9654;52.302;8.120;2023-01-23T02:00:54;1.90;99.90
19044;DHT22;9654;52.302;8.120;2023-01-23T02:03:22;1.90;99.90
19044;DHT22;9654;52.302;8.120;2023-01-23T02:05:51;1.90;99.90
19044;DHT22;9654;52.302;8.120;2023-01-23T02:08:21;1.90;99.90
19044;DHT22;9654;52.302;8.120;2023-01-23T02:10:48;2.00;99.90
19044;DHT22;9654;52.302;8.120;2023-01-23T02:13:24;2.00;99.90
19044;DHT22;9654;52.302;8.120;2023-01-23T02:15:55;2.00;99.90
19044;DHT22;9654;52.302;8.120;2023-01-23T02:18:22;1.90;99.90
19044;DHT22;9654;52.302;8.120;2023-01-23T02:20:52;1.90;99.90
19044;DHT22;9654;52.302;8.120;2023-01-23T02:23:25;1.90;99.90
19044;DHT22;9654;52.302;8.120;2023-01-23T02:25:57;1.90;99.90
19044;DHT22;9654;52.302;8.120;2023-01-23T02:28:36;1.90;99.90
19044;DHT22;9654;52.302;8.120;2023-01-23T02:31:03;2.00;99.90
19044;DHT22;9654;52.302;8.120;2023-01-23T02:33:49;1.90;99.90
19044;DHT22;9654;52.302;8.120;2023-01-23T02:36:17;2.00;99.90
19044;DHT22;9654;52.302;8.120;2023-01-23T02:38:50;1.90;99.90
19044;DHT22;9654;52.302;8.120;2023-01-23T02:41:24;2.00;99.90
19044;DHT22;9654;52.302;8.120;2023-01-23T02:43:54;2.00;99.90
19044;DHT22;9654;52.302;8.120;2023-01-23T02:46:23;1.90;99.90
19044;DHT22;9654;52.302;8.120;2023-01-23T02:48:50;2.00;99.90
19044;DHT22;9654;52.302;8.120;2023-01-23T02:51:18;2.00;99.90
19044;DHT22;9654;52.302;8.120;2023-01-23T02:53:45;2.00;99.90
19044;DHT22;9654;52.302;8.120;2023-01-23T02:56:12;1.90;99.90
19044;DHT22;9654;52.302;8.120;2023-01-23T02:58:40;1.90;99.90
19044;DHT22;9654;52.302;8.120;2023-01-23T03:01:26;1.90;99.90
19044;DHT22;9654;52.302;8.120;2023-01-23T03:03:53;1.90;99.90
19044;DHT22;9654;52.302;8.120;2023-01-23T03:06:22;1.90;99.90
19044;DHT22;9654;52.302;8.120;2023-01-23T03:08:49;1.90;99.90
19044;DHT22;9654;52.302;8.120;2023-01-23T03:11:17;1.90;99.90
19044;DHT22;9654;52.302;8.120;2023-01-23T03:13:46;1.90;99.90
19044;DHT22;9654;52.302;8.120;2023-01-23T03:16:13;1.90;99.90
19044;DHT22;9654;52.302;8.120;2023-01-23T03:18:39;1.90;99.90
19044;DHT22;9654;52.302;8.120;2023-01-23T03:21:06;1.90;99.90
19044;DHT22;9654;52.302;8.120;2023-01-23T03:23:33;1.90;99.90
19044;DHT22;9654;52.302;8.120;2023-01-23T03:26:01;1.90;99.90
19044;DHT22;9654;52.302;8.120;2023-01-23T03:28:28;1.90;99.90
19044;DHT22;9654;52.302;8.120;2023-01-23T03:31:14;1.90;99.90
19044;DHT22;9654;52.302;8.120;2023-01-23T03:33:40;1.90;99.90
19044;DHT22;9654;52.302;8.120;2023-01-23T03:36:09;1.80;99.90
19044;DHT22;9654;52.302;8.120;2023-01-23T03:38:36;1.90;99.90
19044;DHT22;9654;52.302;8.120;2023-01-23T03:41:03;1.90;99.90
19044;DHT22;9654;52.302;8.120;2023-01-23T03:43:47;1.90;99.90
19044;DHT22;9654;52.302;8.120;2023-01-23T03:46:15;1.90;99.90
19044;DHT22;9654;52.302;8.120;2023-01-23T03:48:42;1.90;99.90
19044;DHT22;9654;52.302;8.120;2023-01-23T03:51:09;1.90;99.90
19044;DHT22;9654;52.302;8.120;2023-01-23T03:53:36;1.90;99.90
19044;DHT22;9654;52.302;8.120;2023-01-23T03:56:03;1.90;99.90
19044;DHT22;9654;52.302;8.120;2023-01-23T03:58:30;1.90;99.90
19044;DHT22;9654;52.302;8.120;2023-01-23T04:00:56;1.90;99.90
19044;DHT22;9654;52.302;8.120;2023-01-23T04:03:24;1.90;99.90
19044;DHT22;9654;52.302;8.120;2023-01-23T04:05:54;1.90;99.90
19044;DHT22;9654;52.302;8.120;2023-01-23T04:08:22;1.90;99.90
19044;DHT22;9654;52.302;8.120;2023-01-23T04:10:48;1.90;99.90
19044;DHT22;9654;52.302;8.120;2023-01-23T04:13:15;1.90;99.90
19044;DHT22;9654;52.302;8.120;2023-01-23T04:15:42;1.90;99.90
19044;DHT22;9654;52.302;8.120;2023-01-23T04:18:09;1.90;99.90
19044;DHT22;9654;52.302;8.120;2023-01-23T04:20:37;1.90;99.90
19044;DHT22;9654;52.302;8.120;2023-01-23T04:23:04;1.90;99.90
19044;DHT22;9654;52.302;8.120;2023-01-23T04:25:31;1.90;99.90
19044;DHT22;9654;52.302;8.120;2023-01-23T04:27:57;1.90;99.90
19044;DHT22;9654;52.302;8.120;2023-01-23T04:30:24;1.90;99.90
19044;DHT22;9654;52.302;8.120;2023-01-23T04:32:51;1.90;99.90
19044;DHT22;9654;52.302;8.120;2023-01-23T04:35:18;2.00;99.90
19044;DHT22;9654;52.302;8.120;2023-01-23T04:37:46;1.90;99.90
19044;DHT22;9654;52.302;8.120;2023-01-23T04:40:13;1.90;99.90
19044;DHT22;9654;52.302;8.120;2023-01-23T04:42:39;1.90;99.90
19044;DHT22;9654;52.302;8.120;2023-01-23T04:45:07;1.90;99.90
19044;DHT22;9654;52.302;8.120;2023-01-23T04:47:34;1.90;99.90
19044;DHT22;9654;52.302;8.120;2023-01-23T04:50:01;1.90;99.90
19044;DHT22;9654;52.302;8.120;2023-01-23T04:52:28;1.90;99.90
19044;DHT22;9654;52.302;8.120;2023-01-23T04:54:56;1.90;99.90
19044;DHT22;9654;52.302;8.120;2023-01-23T04:57:23;1.90;99.90
19044;DHT22;9654;52.302;8.120;2023-01-23T04:59:50;1.90;99.90
19044;DHT22;9654;52.302;8.120;2023-01-23T05:02:17;1.90;99.90
19044;DHT22;9654;52.302;8.120;2023-01-23T05:04:44;1.90;99.90
19044;DHT22;9654;52.302;8.120;2023-01-23T05:07:11;1.90;99.90
19044;DHT22;9654;52.302;8.120;2023-01-23T05:09:38;2.00;99.90
19044;DHT22;9654;52.302;8.120;2023-01-23T05:12:06;1.90;99.90
19044;DHT22;9654;52.302;8.120;2023-01-23T05:14:33;1.90;99.90
19044;DHT22;9654;52.302;8.120;2023-01-23T05:17:00;2.00;99.90
19044;DHT22;9654;52.302;8.120;2023-01-23T05:19:27;1.90;99.90
19044;DHT22;9654;52.302;8.120;2023-01-23T05:21:53;2.00;99.90
19044;DHT22;9654;52.302;8.120;2023-01-23T05:24:20;2.00;99.90
19044;DHT22;9654;52.302;8.120;2023-01-23T05:26:47;1.90;99.90
19044;DHT22;9654;52.302;8.120;2023-01-23T05:29:15;1.90;99.90
19044;DHT22;9654;52.302;8.120;2023-01-23T05:31:42;1.90;99.90
19044;DHT22;9654;52.302;8.120;2023-01-23T05:34:08;1.90;99.90
19044;DHT22;9654;52.302;8.120;2023-01-23T05:36:35;1.90;99.90
19044;DHT22;9654;52.302;8.120;2023-01-23T05:39:02;1.90;99.90
19044;DHT22;9654;52.302;8.120;2023-01-23T05:41:29;1.90;99.90
19044;DHT22;9654;52.302;8.120;2023-01-23T05:43:55;1.90;99.90
19044;DHT22;9654;52.302;8.120;2023-01-23T05:46:23;1.90;99.90
19044;DHT22;9654;52.302;8.120;2023-01-23T05:48:51;1.90;99.90
19044;DHT22;9654;52.302;8.120;2023-01-23T05:51:18;1.90;99.90
19044;DHT22;9654;52.302;8.120;2023-01-23T05:53:44;1.90;99.90
19044;DHT22;9654;52.302;8.120;2023-01-23T05:56:11;1.90;99.90
19044;DHT22;9654;52.302;8.120;2023-01-23T05:58:38;1.90;99.90
19044;DHT22;9654;52.302;8.120;2023-01-23T06:01:05;1.90;99.90
19044;DHT22;9654;52.302;8.120;2023-01-23T06:03:33;1.90;99.90
19044;DHT22;9654;52.302;8.120;2023-01-23T06:06:01;1.90;99.90
19044;DHT22;9654;52.302;8.120;2023-01-23T06:08:28;1.90;99.90
19044;DHT22;9654;52.302;8.120;2023-01-23T06:10:56;1.90;99.90
19044;DHT22;9654;52.302;8.120;2023-01-23T06:13:24;2.00;99.90
19044;DHT22;9654;52.302;8.120;2023-01-23T06:15:50;2.00;99.90
19044;DHT22;9654;52.302;8.120;2023-01-23T06:18:17;2.00;99.90
19044;DHT22;9654;52.302;8.120;2023-01-23T06:20:46;2.00;99.90
19044;DHT22;9654;52.302;8.120;2023-01-23T06:23:13;2.00;99.90
19044;DHT22;9654;52.302;8.120;2023-01-23T06:25:40;2.00;99.90
19044;DHT22;9654;52.302;8.120;2023-01-23T06:28:07;2.00;99.90
19044;DHT22;9654;52.302;8.120;2023-01-23T06:30:34;2.00;99.90
19044;DHT22;9654;52.302;8.120;2023-01-23T06:33:00;2.00;99.90
19044;DHT22;9654;52.302;8.120;2023-01-23T06:35:27;2.00;99.90
19044;DHT22;9654;52.302;8.120;2023-01-23T06:37:55;2.00;99.90
19044;DHT22;9654;52.302;8.120;2023-01-23T06:40:22;2.00;99.90
19044;DHT22;9654;52.302;8.120;2023-01-23T06:42:49;2.00;99.90
19044;DHT22;9654;52.302;8.120;2023-01-23T06:45:19;2.00;99.90
19044;DHT22;9654;52.302;8.120;2023-01-23T06:47:46;2.00;99.90
19044;DHT22;9654;52.302;8.120;2023-01-23T06:50:13;2.00;99.90
19044;DHT22;9654;52.302;8.120;2023-01-23T06:52:39;2.00;99.90
19044;DHT22;9654;52.302;8.120;2023-01-23T06:55:08;2.00;99.90
19044;DHT22;9654;52.302;8.120;2023-01-23T06:57:36;2.00;99.90
19044;DHT22;9654;52.302;8.120;2023-01-23T07:00:03;2.00;99.90
19044;DHT22;9654;52.302;8.120;2023-01-23T07:02:30;2.00;99.90
19044;DHT22;9654;52.302;8.120;2023-01-23T07:04:57;2.00;99.90
19044;DHT22;9654;52.302;8.120;2023-01-23T07:07:24;2.00;99.90
19044;DHT22;9654;52.302;8.120;2023-01-23T07:09:51;2.00;99.90
19044;DHT22;9654;52.302;8.120;2023-01-23T07:12:19;2.00;99.90
19044;DHT22;9654;52.302;8.120;2023-01-23T07:14:45;2.00;99.90
19044;DHT22;9654;52.302;8.120;2023-01-23T07:17:12;2.00;99.90
19044;DHT22;9654;52.302;8.120;2023-01-23T07:19:39;2.00;99.90
19044;DHT22;9654;52.302;8.120;2023-01-23T07:22:06;2.00;99.90
19044;DHT22;9654;52.302;8.120;2023-01-23T07:24:33;2.00;99.90
19044;DHT22;9654;52.302;8.120;2023-01-23T07:26:59;2.00;99.90
19044;DHT22;9654;52.302;8.120;2023-01-23T07:29:27;2.00;99.90
19044;DHT22;9654;52.302;8.120;2023-01-23T07:31:54;2.00;99.90
19044;DHT22;9654;52.302;8.120;2023-01-23T07:34:23;2.00;99.90
19044;DHT22;9654;52.302;8.120;2023-01-23T07:36:50;2.00;99.90
19044;DHT22;9654;52.302;8.120;2023-01-23T07:39:17;2.00;99.90
19044;DHT22;9654;52.302;8.120;2023-01-23T07:41:44;2.00;99.90
19044;DHT22;9654;52.302;8.120;2023-01-23T07:44:13;1.90;99.90
19044;DHT22;9654;52.302;8.120;2023-01-23T07:46:43;2.00;99.90
19044;DHT22;9654;52.302;8.120;2023-01-23T07:49:10;2.00;99.90
19044;DHT22;9654;52.302;8.120;2023-01-23T07:51:37;2.00;99.90
19044;DHT22;9654;52.302;8.120;2023-01-23T07:54:04;2.00;99.90
19044;DHT22;9654;52.302;8.120;2023-01-23T07:56:31;2.00;99.90
19044;DHT22;9654;52.302;8.120;2023-01-23T07:58:58;2.00;99.90
19044;DHT22;9654;52.302;8.120;2023-01-23T08:01:25;2.00;99.90
19044;DHT22;9654;52.302;8.120;2023-01-23T08:03:53;2.00;99.90
19044;DHT22;9654;52.302;8.120;2023-01-23T08:06:20;2.00;99.90
19044;DHT22;9654;52.302;8.120;2023-01-23T08:08:47;2.00;99.90
19044;DHT22;9654;52.302;8.120;2023-01-23T08:11:14;2.00;99.90
19044;DHT22;9654;52.302;8.120;2023-01-23T08:13:41;2.00;99.90
19044;DHT22;9654;52.302;8.120;2023-01-23T08:16:08;2.00;99.90
19044;DHT22;9654;52.302;8.120;2023-01-23T08:18:35;2.00;99.90
19044;DHT22;9654;52.302;8.120;2023-01-23T08:21:04;2.00;99.90
19044;DHT22;9654;52.302;8.120;2023-01-23T08:23:32;2.00;99.90
19044;DHT22;9654;52.302;8.120;2023-01-23T08:26:02;1.90;99.90
19044;DHT22;9654;52.302;8.120;2023-01-23T08:28:30;2.10;99.90
19044;DHT22;9654;52.302;8.120;2023-01-23T08:30:59;2.10;99.90
19044;DHT22;9654;52.302;8.120;2023-01-23T08:33:26;2.10;99.90
19044;DHT22;9654;52.302;8.120;2023-01-23T08:35:55;2.10;99.90
19044;DHT22;9654;52.302;8.120;2023-01-23T08:38:24;2.10;99.90
19044;DHT22;9654;52.302;8.120;2023-01-23T08:40:53;2.10;99.90
19044;DHT22;9654;52.302;8.120;2023-01-23T08:43:20;2.10;99.90
19044;DHT22;9654;52.302;8.120;2023-01-23T08:45:48;2.10;99.90
19044;DHT22;9654;52.302;8.120;2023-01-23T08:48:16;2.10;99.90
19044;DHT22;9654;52.302;8.120;2023-01-23T08:50:43;2.10;99.90
19044;DHT22;9654;52.302;8.120;2023-01-23T08:53:10;2.10;99.90
19044;DHT22;9654;52.302;8.120;2023-01-23T08:55:39;2.10;99.90
19044;DHT22;9654;52.302;8.120;2023-01-23T08:58:06;2.10;99.90
19044;DHT22;9654;52.302;8.120;2023-01-23T09:00:34;2.10;99.90
19044;DHT22;9654;52.302;8.120;2023-01-23T09:03:01;2.20;99.90
19044;DHT22;9654;52.302;8.120;2023-01-23T09:05:29;2.20;99.90
19044;DHT22;9654;52.302;8.120;2023-01-23T09:07:57;2.20;99.90
19044;DHT22;9654;52.302;8.120;2023-01-23T09:10:24;2.20;99.90
19044;DHT22;9654;52.302;8.120;2023-01-23T09:12:53;2.20;99.90
19044;DHT22;9654;52.302;8.120;2023-01-23T09:15:20;2.30;99.90
19044;DHT22;9654;52.302;8.120;2023-01-23T09:17:47;2.30;99.90
19044;DHT22;9654;52.302;8.120;2023-01-23T09:20:15;2.30;99.90
19044;DHT22;9654;52.302;8.120;2023-01-23T09:22:41;2.30;99.90
19044;DHT22;9654;52.302;8.120;2023-01-23T09:25:09;2.20;99.90
19044;DHT22;9654;52.302;8.120;2023-01-23T09:27:36;2.20;99.90
19044;DHT22;9654;52.302;8.120;2023-01-23T09:30:05;2.30;99.90
19044;DHT22;9654;52.302;8.120;2023-01-23T09:32:32;2.30;99.90
19044;DHT22;9654;52.302;8.120;2023-01-23T09:34:59;2.30;99.90
19044;DHT22;9654;52.302;8.120;2023-01-23T09:37:28;2.30;99.90
19044;DHT22;9654;52.302;8.120;2023-01-23T09:39:55;2.40;99.90
19044;DHT22;9654;52.302;8.120;2023-01-23T09:42:28;2.40;99.90
19044;DHT22;9654;52.302;8.120;2023-01-23T09:45:00;2.40;99.90
19044;DHT22;9654;52.302;8.120;2023-01-23T09:47:34;2.50;99.90
19044;DHT22;9654;52.302;8.120;2023-01-23T09:50:05;2.50;99.90
19044;DHT22;9654;52.302;8.120;2023-01-23T09:52:36;2.50;99.90
19044;DHT22;9654;52.302;8.120;2023-01-23T09:55:12;2.50;99.90
19044;DHT22;9654;52.302;8.120;2023-01-23T09:57:43;2.60;99.90
19044;DHT22;9654;52.302;8.120;2023-01-23T10:00:17;2.60;99.90
19044;DHT22;9654;52.302;8.120;2023-01-23T10:02:48;2.60;99.90
19044;DHT22;9654;52.302;8.120;2023-01-23T10:05:17;2.50;99.90
19044;DHT22;9654;52.302;8.120;2023-01-23T10:07:55;2.50;99.90
19044;DHT22;9654;52.302;8.120;2023-01-23T10:13:44;2.50;99.90
19044;DHT22;9654;52.302;8.120;2023-01-23T10:16:34;2.50;99.90
19044;DHT22;9654;52.302;8.120;2023-01-23T10:19:16;2.50;99.90
19044;DHT22;9654;52.302;8.120;2023-01-23T10:21:51;2.60;99.90
19044;DHT22;9654;52.302;8.120;2023-01-23T10:24:36;2.50;99.90
19044;DHT22;9654;52.302;8.120;2023-01-23T10:27:15;2.50;99.90
19044;DHT22;9654;52.302;8.120;2023-01-23T10:29:47;2.50;99.90
19044;DHT22;9654;52.302;8.120;2023-01-23T10:32:23;2.50;99.90
19044;DHT22;9654;52.302;8.120;2023-01-23T10:34:58;2.60;99.90
19044;DHT22;9654;52.302;8.120;2023-01-23T10:37:39;2.60;99.90
19044;DHT22;9654;52.302;8.120;2023-01-23T10:40:12;2.60;99.90
19044;DHT22;9654;52.302;8.120;2023-01-23T10:42:39;2.60;99.90
19044;DHT22;9654;52.302;8.120;2023-01-23T10:45:13;2.60;99.90
19044;DHT22;9654;52.302;8.120;2023-01-23T10:47:43;2.60;99.90
19044;DHT22;9654;52.302;8.120;2023-01-23T10:50:12;2.60;99.90
19044;DHT22;9654;52.302;8.120;2023-01-23T10:52:41;2.60;99.90
19044;DHT22;9654;52.302;8.120;2023-01-23T10:55:27;2.60;99.90
19044;DHT22;9654;52.302;8.120;2023-01-23T10:57:55;2.60;99.90
19044;DHT22;9654;52.302;8.120;2023-01-23T11:00:26;2.60;99.90
19044;DHT22;9654;52.302;8.120;2023-01-23T11:02:55;2.60;99.90
19044;DHT22;9654;52.302;8.120;2023-01-23T11:05:36;2.60;99.90
19044;DHT22;9654;52.302;8.120;2023-01-23T11:08:24;2.70;99.90
19044;DHT22;9654;52.302;8.120;2023-01-23T11:10:53;2.70;99.90
19044;DHT22;9654;52.302;8.120;2023-01-23T11:13:25;2.80;99.90
19044;DHT22;9654;52.302;8.120;2023-01-23T11:15:53;2.80;99.90
19044;DHT22;9654;52.302;8.120;2023-01-23T11:18:30;2.80;99.90
19044;DHT22;9654;52.302;8.120;2023-01-23T11:20:58;2.80;99.90
19044;DHT22;9654;52.302;8.120;2023-01-23T11:23:25;2.80;99.90
19044;DHT22;9654;52.302;8.120;2023-01-23T11:25:54;2.90;99.90
19044;DHT22;9654;52.302;8.120;2023-01-23T11:28:22;2.90;99.90
19044;DHT22;9654;52.302;8.120;2023-01-23T11:30:54;2.80;99.90
19044;DHT22;9654;52.302;8.120;2023-01-23T11:33:35;2.80;99.90
19044;DHT22;9654;52.302;8.120;2023-01-23T11:38:59;2.80;99.90
19044;DHT22;9654;52.302;8.120;2023-01-23T11:41:30;2.80;99.90
19044;DHT22;9654;52.302;8.120;2023-01-23T11:43:59;2.80;99.90
19044;DHT22;9654;52.302;8.120;2023-01-23T11:46:50;2.80;99.90
19044;DHT22;9654;52.302;8.120;2023-01-23T11:49:38;2.80;99.90
19044;DHT22;9654;52.302;8.120;2023-01-23T11:52:24;2.80;99.90
19044;DHT22;9654;52.302;8.120;2023-01-23T11:55:07;2.90;99.90
19044;DHT22;9654;52.302;8.120;2023-01-23T11:57:47;2.90;99.90
19044;DHT22;9654;52.302;8.120;2023-01-23T12:00:23;2.80;99.90
19044;DHT22;9654;52.302;8.120;2023-01-23T12:03:15;2.80;99.90
19044;DHT22;9654;52.302;8.120;2023-01-23T12:08:49;2.80;99.90
19044;DHT22;9654;52.302;8.120;2023-01-23T12:11:21;2.80;99.90
19044;DHT22;9654;52.302;8.120;2023-01-23T12:14:02;2.90;99.90
19044;DHT22;9654;52.302;8.120;2023-01-23T12:16:44;2.90;99.90
19044;DHT22;9654;52.302;8.120;2023-01-23T12:19:20;2.90;99.90
19044;DHT22;9654;52.302;8.120;2023-01-23T12:21:56;3.00;99.90
19044;DHT22;9654;52.302;8.120;2023-01-23T12:24:38;3.00;99.90
19044;DHT22;9654;52.302;8.120;2023-01-23T12:27:14;3.00;99.90
19044;DHT22;9654;52.302;8.120;2023-01-23T12:32:52;3.00;99.90
19044;DHT22;9654;52.302;8.120;2023-01-23T12:35:34;3.00;99.90
19044;DHT22;9654;52.302;8.120;2023-01-23T12:38:22;3.10;99.90
19044;DHT22;9654;52.302;8.120;2023-01-23T12:40:52;3.10;99.90
19044;DHT22;9654;52.302;8.120;2023-01-23T12:43:33;3.00;99.90
19044;DHT22;9654;52.302;8.120;2023-01-23T12:46:04;3.00;99.90
19044;DHT22;9654;52.302;8.120;2023-01-23T12:48:38;3.00;99.90
19044;DHT22;9654;52.302;8.120;2023-01-23T12:51:13;3.00;99.90
19044;DHT22;9654;52.302;8.120;2023-01-23T12:53:43;3.00;99.90
19044;DHT22;9654;52.302;8.120;2023-01-23T12:56:14;3.00;99.90
19044;DHT22;9654;52.302;8.120;2023-01-23T12:58:48;3.00;99.90
19044;DHT22;9654;52.302;8.120;2023-01-23T13:01:27;3.00;99.90
19044;DHT22;9654;52.302;8.120;2023-01-23T13:04:11;3.00;99.90
19044;DHT22;9654;52.302;8.120;2023-01-23T13:06:53;2.90;99.90
19044;DHT22;9654;52.302;8.120;2023-01-23T13:09:28;3.00;99.90
19044;DHT22;9654;52.302;8.120;2023-01-23T13:12:05;3.00;99.90
19044;DHT22;9654;52.302;8.120;2023-01-23T13:14:38;3.00;99.90
19044;DHT22;9654;52.302;8.120;2023-01-23T13:17:28;3.00;99.90
19044;DHT22;9654;52.302;8.120;2023-01-23T13:23:21;3.00;99.90
19044;DHT22;9654;52.302;8.120;2023-01-23T13:25:49;3.00;99.90
19044;DHT22;9654;52.302;8.120;2023-01-23T13:28:40;3.00;99.90
19044;DHT22;9654;52.302;8.120;2023-01-23T13:31:26;3.00;99.90
19044;DHT22;9654;52.302;8.120;2023-01-23T13:33:57;3.00;99.90
19044;DHT22;9654;52.302;8.120;2023-01-23T13:36:31;3.00;99.90
19044;DHT22;9654;52.302;8.120;2023-01-23T13:39:18;3.00;99.90
19044;DHT22;9654;52.302;8.120;2023-01-23T13:41:47;3.00;99.90
19044;DHT22;9654;52.302;8.120;2023-01-23T13:44:22;3.00;99.90
19044;DHT22;9654;52.302;8.120;2023-01-23T13:46:57;2.90;99.90
19044;DHT22;9654;52.302;8.120;2023-01-23T13:49:37;3.00;99.90
19044;DHT22;9654;52.302;8.120;2023-01-23T13:52:20;2.90;99.90
19044;DHT22;9654;52.302;8.120;2023-01-23T13:55:17;2.90;99.90
19044;DHT22;9654;52.302;8.120;2023-01-23T13:58:03;2.90;99.90
19044;DHT22;9654;52.302;8.120;2023-01-23T14:00:30;2.90;99.90
19044;DHT22;9654;52.302;8.120;2023-01-23T14:03:09;2.90;99.90
19044;DHT22;9654;52.302;8.120;2023-01-23T14:06:04;3.00;99.90
19044;DHT22;9654;52.302;8.120;2023-01-23T14:08:33;2.90;99.90
19044;DHT22;9654;52.302;8.120;2023-01-23T14:11:00;2.90;99.90
19044;DHT22;9654;52.302;8.120;2023-01-23T14:13:27;2.90;99.90
19044;DHT22;9654;52.302;8.120;2023-01-23T14:15:54;2.90;99.90
19044;DHT22;9654;52.302;8.120;2023-01-23T14:18:37;2.90;99.90
19044;DHT22;9654;52.302;8.120;2023-01-23T14:21:12;2.80;99.90
19044;DHT22;9654;52.302;8.120;2023-01-23T14:23:43;2.80;99.90
19044;DHT22;9654;52.302;8.120;2023-01-23T14:26:14;2.80;99.90
19044;DHT22;9654;52.302;8.120;2023-01-23T14:28:50;2.80;99.90
19044;DHT22;9654;52.302;8.120;2023-01-23T14:31:21;2.80;99.90
19044;DHT22;9654;52.302;8.120;2023-01-23T14:33:48;2.80;99.90
19044;DHT22;9654;52.302;8.120;2023-01-23T14:36:17;2.80;99.90
19044;DHT22;9654;52.302;8.120;2023-01-23T14:38:47;2.90;99.90
19044;DHT22;9654;52.302;8.120;2023-01-23T14:41:15;2.80;99.90
19044;DHT22;9654;52.302;8.120;2023-01-23T14:43:43;2.80;99.90
19044;DHT22;9654;52.302;8.120;2023-01-23T14:46:15;2.80;99.90
19044;DHT22;9654;52.302;8.120;2023-01-23T14:48:44;2.80;99.90
19044;DHT22;9654;52.302;8.120;2023-01-23T14:51:17;2.80;99.90
19044;DHT22;9654;52.302;8.120;2023-01-23T14:53:53;2.80;99.90
19044;DHT22;9654;52.302;8.120;2023-01-23T14:56:21;2.80;99.90
19044;DHT22;9654;52.302;8.120;2023-01-23T14:58:53;2.80;99.90
19044;DHT22;9654;52.302;8.120;2023-01-23T15:01:20;2.80;99.90
19044;DHT22;9654;52.302;8.120;2023-01-23T15:03:55;2.80;99.90
19044;DHT22;9654;52.302;8.120;2023-01-23T15:06:23;2.80;99.90
19044;DHT22;9654;52.302;8.120;2023-01-23T15:08:51;2.80;99.90
19044;DHT22;9654;52.302;8.120;2023-01-23T15:11:25;2.70;99.90
19044;DHT22;9654;52.302;8.120;2023-01-23T15:13:54;2.70;99.90
19044;DHT22;9654;52.302;8.120;2023-01-23T15:16:31;2.80;99.90
19044;DHT22;9654;52.302;8.120;2023-01-23T15:19:03;2.70;99.90
19044;DHT22;9654;52.302;8.120;2023-01-23T15:21:33;2.70;99.90
19044;DHT22;9654;52.302;8.120;2023-01-23T15:24:26;2.70;99.90
19044;DHT22;9654;52.302;8.120;2023-01-23T15:26:59;2.70;99.90
19044;DHT22;9654;52.302;8.120;2023-01-23T15:29:28;2.60;99.90
19044;DHT22;9654;52.302;8.120;2023-01-23T15:31:55;2.60;99.90
19044;DHT22;9654;52.302;8.120;2023-01-23T15:34:25;2.60;99.90
19044;DHT22;9654;52.302;8.120;2023-01-23T15:36:56;2.60;99.90
19044;DHT22;9654;52.302;8.120;2023-01-23T15:39:27;2.60;99.90
19044;DHT22;9654;52.302;8.120;2023-01-23T15:41:57;2.50;99.90
19044;DHT22;9654;52.302;8.120;2023-01-23T15:44:25;2.50;99.90
19044;DHT22;9654;52.302;8.120;2023-01-23T15:46:53;2.50;99.90
19044;DHT22;9654;52.302;8.120;2023-01-23T15:49:20;2.50;99.90
19044;DHT22;9654;52.302;8.120;2023-01-23T15:51:47;2.50;99.90
19044;DHT22;9654;52.302;8.120;2023-01-23T15:54:27;2.40;99.90
19044;DHT22;9654;52.302;8.120;2023-01-23T15:56:54;2.40;99.90
19044;DHT22;9654;52.302;8.120;2023-01-23T15:59:21;2.40;99.90
19044;DHT22;9654;52.302;8.120;2023-01-23T16:01:48;2.40;99.90
19044;DHT22;9654;52.302;8.120;2023-01-23T16:04:15;2.30;99.90
19044;DHT22;9654;52.302;8.120;2023-01-23T16:06:43;2.40;99.90
19044;DHT22;9654;52.302;8.120;2023-01-23T16:09:20;2.30;99.90
19044;DHT22;9654;52.302;8.120;2023-01-23T16:11:50;2.30;99.90
19044;DHT22;9654;52.302;8.120;2023-01-23T16:14:18;2.40;99.90
19044;DHT22;9654;52.302;8.120;2023-01-23T16:16:45;2.40;99.90
19044;DHT22;9654;52.302;8.120;2023-01-23T16:19:12;2.40;99.90
19044;DHT22;9654;52.302;8.120;2023-01-23T16:21:39;2.30;99.90
19044;DHT22;9654;52.302;8.120;2023-01-23T16:24:14;2.30;99.90
19044;DHT22;9654;52.302;8.120;2023-01-23T16:26:41;2.30;99.90
19044;DHT22;9654;52.302;8.120;2023-01-23T16:29:22;2.30;99.90
19044;DHT22;9654;52.302;8.120;2023-01-23T16:31:50;2.30;99.90
19044;DHT22;9654;52.302;8.120;2023-01-23T16:34:17;2.30;99.90
19044;DHT22;9654;52.302;8.120;2023-01-23T16:36:44;2.30;99.90
19044;DHT22;9654;52.302;8.120;2023-01-23T16:39:15;2.30;99.90